This is the latest recevied weather packets stored in our database for station/object AD9CI-15. If no packets are shown the sender has not sent any weather packets the latest 10 day(s).
| Time | Temp. | Humidity | Pressure | Rain* | Wind** | Luminosity | Snow |
|---|---|---|---|---|---|---|---|
| 1777840344 | 18.89° C | 46% | 1005.6 hPa | - | - | - | - |
| 1777838662 | 18.89° C | 42% | 1005.8 hPa | - | - | - | - |
| 1777836742 | 18.89° C | 40% | 1005.8 hPa | - | - | - | - |
| 1777835063 | 18.33° C | 42% | 1006.2 hPa | - | - | - | - |
| 1777831462 | 16.11° C | 52% | 1007.3 hPa | - | - | - | - |
| 1777829544 | 15° C | 53% | 1008 hPa | - | - | - | - |
| 1777827862 | 13.33° C | 55% | 1008.6 hPa | - | - | - | - |
| 1777825943 | 12.22° C | 61% | 1009.3 hPa | - | - | - | - |
| 1777824262 | 13.33° C | 57% | 1009.4 hPa | - | - | - | - |
| 1777822344 | 13.33° C | 53% | 1009.4 hPa | - | - | - | - |
| 1777820662 | 13.89° C | 48% | 1009.4 hPa | - | - | - | - |
| 1777818744 | 13.89° C | 50% | 1009.7 hPa | - | - | - | - |
| 1777817063 | 12.78° C | 53% | 1010.1 hPa | - | - | - | - |
| 1777815143 | 11.67° C | 53% | 1010.6 hPa | - | - | - | - |
| 1777813462 | 11.11° C | 51% | 1010.4 hPa | - | - | - | - |
| 1777811543 | 10.56° C | 50% | 1010.4 hPa | - | - | - | - |
| 1777809862 | 10° C | 49% | 1010.6 hPa | - | - | - | - |
| 1777806262 | 9.44° C | 50% | 1010.5 hPa | - | - | - | - |
| 1777804343 | 9.44° C | 49% | 1010.5 hPa | - | - | - | - |
| 1777802663 | 9.44° C | 48% | 1010.7 hPa | - | - | - | - |
| 1777800744 | 9.44° C | 47% | 1011 hPa | - | - | - | - |
| 1777799063 | 9.44° C | 47% | 1011.1 hPa | - | - | - | - |
| 1777795463 | 9.44° C | 48% | 1011.7 hPa | - | - | - | - |
| 1777793543 | 8.89° C | 49% | 1012 hPa | - | - | - | - |
| 1777791863 | 8.33° C | 51% | 1012.1 hPa | - | - | - | - |
* Rain since midnight (hover to see other rain measurements)
** Current wind speed in m/s (hover to see current wind gust speed)